createdAt,value
2022-09-15T00:02:25.166Z,27.48
2022-09-15T00:04:51.765Z,26.15
2022-09-15T00:07:18.449Z,28.73
2022-09-15T00:09:44.928Z,26.45
2022-09-15T00:12:11.453Z,24.35
2022-09-15T00:14:37.905Z,22.75
2022-09-15T00:17:04.607Z,27.27
2022-09-15T00:19:31.117Z,24.23
2022-09-15T00:21:57.669Z,22.13
2022-09-15T00:24:24.155Z,26.17
2022-09-15T00:26:50.664Z,29.73
2022-09-15T00:29:17.143Z,24.70
2022-09-15T00:31:43.626Z,24.73
2022-09-15T00:34:12.789Z,25.88
2022-09-15T00:36:39.398Z,19.70
2022-09-15T00:39:05.902Z,23.48
2022-09-15T00:41:32.413Z,22.88
2022-09-15T00:44:05.450Z,21.73
2022-09-15T00:46:42.361Z,20.35
2022-09-15T00:49:11.534Z,18.25
2022-09-15T00:51:51.680Z,21.10
2022-09-15T00:54:25.137Z,23.60
2022-09-15T00:56:54.999Z,24.47
2022-09-15T00:59:26.354Z,24.52
2022-09-15T01:02:01.092Z,20.85
2022-09-15T01:04:27.695Z,21.23
2022-09-15T01:06:59.588Z,19.55
2022-09-15T01:09:51.158Z,24.40
2022-09-15T01:12:18.464Z,24.92
2022-09-15T01:14:44.884Z,25.70
2022-09-15T01:17:40.414Z,24.77
2022-09-15T01:20:06.814Z,27.65
2022-09-15T01:22:39.515Z,25.00
2022-09-15T01:25:43.579Z,25.00
2022-09-15T01:28:43.633Z,26.10
2022-09-15T01:31:19.382Z,26.30
2022-09-15T01:34:16.805Z,25.52
2022-09-15T01:36:54.746Z,24.97
2022-09-15T01:39:28.682Z,27.15
2022-09-15T01:42:05.536Z,25.67
2022-09-15T01:44:40.260Z,25.13
2022-09-15T01:47:10.233Z,25.58
2022-09-15T01:49:44.690Z,31.87
2022-09-15T01:52:11.475Z,28.98
2022-09-15T01:54:45.975Z,29.00
2022-09-15T01:57:12.935Z,27.20
2022-09-15T01:59:39.362Z,22.92
2022-09-15T02:02:16.691Z,27.10
2022-09-15T02:04:55.349Z,21.02
2022-09-15T02:07:57.005Z,24.35
2022-09-15T02:10:34.565Z,23.02
2022-09-15T02:13:18.102Z,21.75
2022-09-15T02:15:48.432Z,21.17
2022-09-15T02:18:32.819Z,24.35
2022-09-15T02:21:09.240Z,18.35
2022-09-15T02:23:40.959Z,24.77
2022-09-15T02:26:14.067Z,21.98
2022-09-15T02:28:42.987Z,22.90
2022-09-15T02:31:14.140Z,21.98
2022-09-15T02:33:45.535Z,22.45
2022-09-15T02:36:16.559Z,29.05
2022-09-15T02:38:49.218Z,21.75
2022-09-15T02:41:15.871Z,22.67
2022-09-15T02:43:49.562Z,20.70
2022-09-15T02:46:18.817Z,23.77
2022-09-15T02:48:45.528Z,18.55
2022-09-15T02:51:12.234Z,23.63
2022-09-15T02:53:38.918Z,18.70
2022-09-15T02:56:06.589Z,21.88
2022-09-15T02:58:36.415Z,22.00
2022-09-15T03:01:04.514Z,23.17
2022-09-15T03:03:32.545Z,22.13
2022-09-15T03:06:16.319Z,25.33
2022-09-15T03:08:52.023Z,27.25
2022-09-15T03:11:20.346Z,24.30
2022-09-15T03:13:47.552Z,20.77
2022-09-15T03:16:15.806Z,24.55
2022-09-15T03:18:42.589Z,22.47
2022-09-15T03:21:11.579Z,19.75
2022-09-15T03:23:38.276Z,20.58
2022-09-15T03:26:06.210Z,21.83
2022-09-15T03:28:32.767Z,20.55
2022-09-15T03:30:59.482Z,23.37
2022-09-15T03:33:26.146Z,23.30
2022-09-15T03:35:53.301Z,28.33
2022-09-15T03:38:23.152Z,22.90
2022-09-15T03:41:10.578Z,28.20
2022-09-15T03:43:37.779Z,24.13
2022-09-15T03:46:06.911Z,25.40
2022-09-15T03:48:35.480Z,23.10
2022-09-15T03:51:03.168Z,25.50
2022-09-15T03:53:32.003Z,24.02
2022-09-15T03:56:27.284Z,19.73
2022-09-15T03:58:54.317Z,22.85
2022-09-15T04:01:21.441Z,21.27
2022-09-15T04:03:51.231Z,26.40
2022-09-15T04:06:20.234Z,26.13
2022-09-15T04:08:47.652Z,23.83
2022-09-15T04:11:14.470Z,25.40
2022-09-15T04:13:42.044Z,23.92
2022-09-15T04:16:11.549Z,25.95
2022-09-15T04:18:38.449Z,23.33
2022-09-15T04:21:08.856Z,28.80
2022-09-15T04:23:35.402Z,23.73
2022-09-15T04:26:05.468Z,32.15
2022-09-15T04:28:34.827Z,24.10
2022-09-15T04:31:07.761Z,24.45
2022-09-15T04:33:35.071Z,20.83
2022-09-15T04:36:04.519Z,22.60
2022-09-15T04:38:31.711Z,21.75
2022-09-15T04:40:58.880Z,21.75
2022-09-15T04:43:26.154Z,22.38
2022-09-15T04:45:53.944Z,25.43
2022-09-15T04:48:21.235Z,22.83
2022-09-15T04:50:47.769Z,24.30
2022-09-15T04:53:15.018Z,21.45
2022-09-15T04:55:41.817Z,19.58
2022-09-15T04:58:08.901Z,28.23
2022-09-15T05:00:45.773Z,24.08
2022-09-15T05:03:14.040Z,21.83
2022-09-15T05:05:41.349Z,28.85
2022-09-15T05:08:08.228Z,23.48
2022-09-15T05:10:35.167Z,24.33
2022-09-15T05:13:01.632Z,25.38
2022-09-15T05:15:28.113Z,21.02
2022-09-15T05:17:54.668Z,27.67
2022-09-15T05:20:21.152Z,25.33
2022-09-15T05:22:47.591Z,21.70
2022-09-15T05:25:14.163Z,23.90
2022-09-15T05:27:40.631Z,29.55
2022-09-15T05:30:35.209Z,22.00
2022-09-15T05:32:54.159Z,22.15
2022-09-15T05:35:20.620Z,24.13
2022-09-15T05:37:47.099Z,24.85
2022-09-15T05:40:13.674Z,23.80
2022-09-15T05:42:40.401Z,23.90
2022-09-15T05:45:07.580Z,28.58
2022-09-15T05:47:34.250Z,24.97
2022-09-15T05:50:00.719Z,25.15
2022-09-15T05:52:27.169Z,24.25
2022-09-15T05:54:58.869Z,21.83
2022-09-15T05:57:25.734Z,26.33
2022-09-15T05:59:52.416Z,23.83
2022-09-15T06:02:19.113Z,22.30
2022-09-15T06:04:46.218Z,22.90
2022-09-15T06:07:13.181Z,20.95
2022-09-15T06:09:39.737Z,26.75
2022-09-15T06:12:06.424Z,24.70
2022-09-15T06:14:32.936Z,28.63
2022-09-15T06:16:59.422Z,25.40
2022-09-15T06:19:25.891Z,26.50
2022-09-15T06:21:52.995Z,22.15
2022-09-15T06:24:19.627Z,22.30
2022-09-15T06:26:46.086Z,28.58
2022-09-15T06:29:12.899Z,30.45
2022-09-15T06:31:39.574Z,32.22
2022-09-15T06:34:06.697Z,27.35
2022-09-15T06:36:33.637Z,30.40
2022-09-15T06:39:00.163Z,26.17
2022-09-15T06:41:38.184Z,27.63
2022-09-15T06:44:09.745Z,26.70
2022-09-15T06:46:36.433Z,26.95
2022-09-15T06:49:03.004Z,28.47
2022-09-15T06:51:35.224Z,27.08
2022-09-15T06:54:03.017Z,26.65
2022-09-15T06:56:30.428Z,22.90
2022-09-15T06:59:00.138Z,25.92
2022-09-15T07:01:28.964Z,27.57
2022-09-15T07:03:57.092Z,19.73
2022-09-15T07:06:24.689Z,24.52
2022-09-15T07:08:51.421Z,25.05
2022-09-15T07:11:18.475Z,28.38
2022-09-15T07:13:45.350Z,25.63
2022-09-15T07:16:13.035Z,26.10
2022-09-15T07:18:43.211Z,20.42
2022-09-15T07:21:19.886Z,22.33
2022-09-15T07:23:47.632Z,21.95
2022-09-15T07:26:25.829Z,18.13
2022-09-15T07:28:56.418Z,18.48
2022-09-15T07:31:25.276Z,17.40
2022-09-15T07:33:52.686Z,17.13
2022-09-15T07:36:19.878Z,21.08
2022-09-15T07:38:48.562Z,20.10
2022-09-15T07:41:18.774Z,18.90
2022-09-15T07:43:49.727Z,18.52
2022-09-15T07:46:17.639Z,21.25
2022-09-15T07:48:45.829Z,16.75
2022-09-15T07:51:12.926Z,24.73
2022-09-15T07:53:39.432Z,19.42
2022-09-15T07:56:06.358Z,25.35
2022-09-15T07:58:33.730Z,21.27
2022-09-15T08:01:11.063Z,21.88
2022-09-15T08:03:42.914Z,20.90
2022-09-15T08:06:10.639Z,17.85
2022-09-15T08:08:41.252Z,19.98
2022-09-15T08:11:09.573Z,23.95
2022-09-15T08:13:36.676Z,19.02
2022-09-15T08:16:15.222Z,17.87
2022-09-15T08:18:43.245Z,20.52
2022-09-15T08:21:13.579Z,18.02
2022-09-15T08:23:40.395Z,19.00
2022-09-15T08:26:14.112Z,19.05
2022-09-15T08:28:41.681Z,15.07
2022-09-15T08:31:10.913Z,16.95
2022-09-15T08:33:39.825Z,18.73
2022-09-15T08:36:13.511Z,21.73
2022-09-15T08:38:41.509Z,20.98
2022-09-15T08:41:14.084Z,18.40
2022-09-15T08:44:10.189Z,17.90
2022-09-15T08:46:47.621Z,17.00
2022-09-15T08:49:50.502Z,15.02
2022-09-15T08:52:23.728Z,16.17
2022-09-15T08:54:56.411Z,15.00
2022-09-15T08:57:25.799Z,16.67
2022-09-15T08:59:54.494Z,18.17
2022-09-15T09:02:27.205Z,12.68
2022-09-15T09:05:10.803Z,16.38
2022-09-15T09:07:52.853Z,13.57
2022-09-15T09:10:25.281Z,12.07
2022-09-15T09:13:20.285Z,13.23
2022-09-15T09:16:22.896Z,15.98
2022-09-15T09:18:58.743Z,12.27
2022-09-15T09:21:31.147Z,16.43
2022-09-15T09:24:05.306Z,14.68
2022-09-15T09:26:35.923Z,19.02
2022-09-15T09:29:10.901Z,10.00
2022-09-15T09:31:37.922Z,11.55
2022-09-15T09:34:13.628Z,20.20
2022-09-15T09:36:40.279Z,15.00
2022-09-15T09:39:13.762Z,12.98
2022-09-15T09:41:42.099Z,17.52
2022-09-15T09:44:14.942Z,12.52
2022-09-15T09:46:42.387Z,11.43
2022-09-15T09:49:20.975Z,8.55
2022-09-15T09:52:00.136Z,10.77
2022-09-15T09:54:29.319Z,13.18
2022-09-15T09:57:17.050Z,12.35
2022-09-15T09:59:46.337Z,14.00
2022-09-15T10:02:21.896Z,11.90
2022-09-15T10:04:51.936Z,12.55
2022-09-15T10:07:22.167Z,13.65
2022-09-15T10:09:57.879Z,12.73
2022-09-15T10:12:40.546Z,12.00
2022-09-15T10:15:20.679Z,10.27
2022-09-15T10:17:49.568Z,12.77
2022-09-15T10:20:54.610Z,11.45
2022-09-15T10:23:21.718Z,14.48
2022-09-15T10:25:58.980Z,14.33
2022-09-15T10:28:27.709Z,10.27
2022-09-15T10:31:00.373Z,11.45
2022-09-15T10:33:38.499Z,11.48
2022-09-15T10:36:13.990Z,9.57
2022-09-15T10:39:10.922Z,9.50
2022-09-15T10:41:59.166Z,8.30
2022-09-15T10:44:25.664Z,10.43
2022-09-15T10:47:26.158Z,11.60
2022-09-15T10:50:10.658Z,8.43
2022-09-15T10:53:13.120Z,10.03
2022-09-15T10:56:00.331Z,7.68
2022-09-15T10:58:51.144Z,7.43
2022-09-15T11:01:29.866Z,13.07
2022-09-15T11:04:02.943Z,7.65
2022-09-15T11:07:00.431Z,6.40
2022-09-15T11:09:51.055Z,7.43
2022-09-15T11:12:33.193Z,7.72
2022-09-15T11:15:21.315Z,5.68
2022-09-15T11:18:09.558Z,8.38
2022-09-15T11:20:36.055Z,7.50
2022-09-15T11:23:06.858Z,4.50
2022-09-15T11:25:38.788Z,5.90
2022-09-15T11:28:26.696Z,7.63
2022-09-15T11:31:02.828Z,11.05
2022-09-15T11:33:55.481Z,8.00
2022-09-15T11:36:43.510Z,7.75
2022-09-15T11:39:22.452Z,4.57
2022-09-15T11:41:56.445Z,5.13
2022-09-15T11:44:40.452Z,5.32
2022-09-15T11:47:33.662Z,6.77
2022-09-15T11:50:16.556Z,4.15
2022-09-15T11:52:46.723Z,5.90
2022-09-15T11:55:32.024Z,4.75
2022-09-15T11:57:58.544Z,8.23
2022-09-15T12:00:25.472Z,4.10
2022-09-15T12:03:17.722Z,5.22
2022-09-15T12:06:00.927Z,7.28
2022-09-15T12:08:34.175Z,6.70
2022-09-15T12:11:05.886Z,6.78
2022-09-15T12:13:33.039Z,6.17
2022-09-15T12:16:04.262Z,5.05
2022-09-15T12:18:47.034Z,5.03
2022-09-15T12:21:27.737Z,6.78
2022-09-15T12:24:13.011Z,4.82
2022-09-15T12:26:43.217Z,3.40
2022-09-15T12:29:42.062Z,3.38
2022-09-15T12:32:35.232Z,3.50
2022-09-15T12:35:20.009Z,6.90
2022-09-15T12:37:58.158Z,7.07
2022-09-15T12:40:30.234Z,4.50
2022-09-15T12:42:57.572Z,3.22
2022-09-15T12:45:30.343Z,3.13
2022-09-15T12:47:57.031Z,8.00
2022-09-15T12:50:36.206Z,5.95
2022-09-15T12:53:18.196Z,5.27
2022-09-15T12:56:01.730Z,7.03
2022-09-15T12:58:37.589Z,5.22
2022-09-15T13:01:19.727Z,4.35
2022-09-15T13:03:46.657Z,6.45
2022-09-15T13:06:19.337Z,7.40
2022-09-15T13:08:49.689Z,4.82
2022-09-15T13:11:29.714Z,3.22
2022-09-15T13:14:08.392Z,6.03
2022-09-15T13:16:43.942Z,5.22
2022-09-15T13:19:16.985Z,3.37
2022-09-15T13:21:51.476Z,4.90
2022-09-15T13:24:27.153Z,3.55
2022-09-15T13:26:55.840Z,3.45
2022-09-15T13:29:24.349Z,5.25
2022-09-15T13:31:59.273Z,5.00
2022-09-15T13:35:06.595Z,2.60
2022-09-15T13:38:08.578Z,5.28
2022-09-15T13:40:58.276Z,4.00
2022-09-15T13:43:40.802Z,4.25
2022-09-15T13:46:13.823Z,3.57
2022-09-15T13:49:08.239Z,5.68
2022-09-15T13:51:36.607Z,4.45
2022-09-15T13:54:06.808Z,4.60
2022-09-15T13:56:39.588Z,9.98
2022-09-15T13:59:16.259Z,5.93
2022-09-15T14:01:44.933Z,5.65
2022-09-15T14:04:22.284Z,4.57
2022-09-15T14:06:54.985Z,2.78
2022-09-15T14:09:27.360Z,6.20
2022-09-15T14:11:57.887Z,5.10
2022-09-15T14:14:32.198Z,3.35
2022-09-15T14:16:58.997Z,5.18
2022-09-15T14:19:33.874Z,4.13
2022-09-15T14:22:03.548Z,3.65
2022-09-15T14:24:32.205Z,6.07
2022-09-15T14:27:03.493Z,6.57
2022-09-15T14:29:30.971Z,2.72
2022-09-15T14:32:01.794Z,4.30
2022-09-15T14:34:31.739Z,2.97
2022-09-15T14:37:05.042Z,4.30
2022-09-15T14:39:33.439Z,8.05
2022-09-15T14:42:21.632Z,3.28
2022-09-15T14:47:36.425Z,5.68
2022-09-15T14:50:19.712Z,3.60
2022-09-15T14:52:58.725Z,2.65
2022-09-15T14:55:29.130Z,3.03
2022-09-15T14:58:20.196Z,4.20
2022-09-15T15:00:57.670Z,4.45
2022-09-15T15:03:35.473Z,4.77
2022-09-15T15:06:32.031Z,4.90
2022-09-15T15:09:21.308Z,2.80
2022-09-15T15:11:51.558Z,2.95
2022-09-15T15:14:18.522Z,3.35
2022-09-15T15:17:08.659Z,6.97
2022-09-15T15:19:41.030Z,8.68
2022-09-15T15:22:11.554Z,2.72
2022-09-15T15:24:44.043Z,5.03
2022-09-15T15:27:32.268Z,2.45
2022-09-15T15:30:36.545Z,4.00
2022-09-15T15:33:36.805Z,2.75
2022-09-15T15:36:09.282Z,3.95
2022-09-15T15:38:44.909Z,2.95
2022-09-15T15:41:28.788Z,5.45
2022-09-15T15:43:58.008Z,1.50
2022-09-15T15:46:57.740Z,1.92
2022-09-15T15:49:27.412Z,2.80
2022-09-15T15:51:55.585Z,2.28
2022-09-15T15:54:23.141Z,5.20
2022-09-15T15:56:50.606Z,4.13
2022-09-15T15:59:17.573Z,2.38
2022-09-15T16:01:46.739Z,1.90
2022-09-15T16:04:13.833Z,3.85
2022-09-15T16:06:41.569Z,3.25
2022-09-15T16:09:08.183Z,1.93
2022-09-15T16:11:36.639Z,2.83
2022-09-15T16:14:03.850Z,2.22
2022-09-15T16:16:30.617Z,6.80
2022-09-15T16:18:57.218Z,3.80
2022-09-15T16:21:41.465Z,8.37
2022-09-15T16:24:14.014Z,4.97
2022-09-15T16:26:41.417Z,4.35
2022-09-15T16:29:07.972Z,2.22
2022-09-15T16:31:35.142Z,5.05
2022-09-15T16:34:01.723Z,3.40
2022-09-15T16:36:36.321Z,2.75
2022-09-15T16:39:03.839Z,3.75
2022-09-15T16:41:30.408Z,2.63
2022-09-15T16:43:57.020Z,2.05
2022-09-15T16:46:23.728Z,7.77
2022-09-15T16:48:50.664Z,3.85
2022-09-15T16:51:28.900Z,2.75
2022-09-15T16:53:57.909Z,4.97
2022-09-15T16:56:24.710Z,2.83
2022-09-15T16:58:58.803Z,4.20
2022-09-15T17:01:26.933Z,2.28
2022-09-15T17:03:53.587Z,2.80
2022-09-15T17:06:22.023Z,2.58
2022-09-15T17:08:48.657Z,4.45
2022-09-15T17:11:17.566Z,5.73
2022-09-15T17:13:45.091Z,6.25
2022-09-15T17:16:14.911Z,4.00
2022-09-15T17:18:41.579Z,5.07
2022-09-15T17:21:11.163Z,5.30
2022-09-15T17:23:39.822Z,4.57
2022-09-15T17:26:31.603Z,2.47
2022-09-15T17:28:58.733Z,2.60
2022-09-15T17:31:28.370Z,5.30
2022-09-15T17:33:54.966Z,5.80
2022-09-15T17:36:21.536Z,4.37
2022-09-15T17:38:49.066Z,3.75
2022-09-15T17:41:17.844Z,2.10
2022-09-15T17:43:44.716Z,3.15
2022-09-15T17:46:11.942Z,3.42
2022-09-15T17:48:39.094Z,2.80
2022-09-15T17:51:07.219Z,3.72
2022-09-15T17:53:37.162Z,7.18
2022-09-15T17:56:03.726Z,4.30
2022-09-15T17:58:31.538Z,2.53
2022-09-15T18:00:58.537Z,6.10
2022-09-15T18:03:25.084Z,2.20
2022-09-15T18:05:52.193Z,3.33
2022-09-15T18:08:18.802Z,3.15
2022-09-15T18:10:45.662Z,3.15
2022-09-15T18:13:19.040Z,2.50
2022-09-15T18:15:45.769Z,4.47
2022-09-15T18:18:16.211Z,4.13
2022-09-15T18:20:43.664Z,4.43
2022-09-15T18:23:15.411Z,6.78
2022-09-15T18:25:42.814Z,2.90
2022-09-15T18:28:10.084Z,5.25
2022-09-15T18:30:41.890Z,5.45
2022-09-15T18:33:14.606Z,4.10
2022-09-15T18:35:42.153Z,6.72
2022-09-15T18:38:09.469Z,3.43
2022-09-15T18:40:36.033Z,5.85
2022-09-15T18:43:02.673Z,3.28
2022-09-15T18:45:29.211Z,7.95
2022-09-15T18:47:55.811Z,4.10
2022-09-15T18:50:23.930Z,6.17
2022-09-15T18:52:50.532Z,6.55
2022-09-15T18:55:20.254Z,5.38
2022-09-15T18:57:47.572Z,3.45
2022-09-15T19:00:17.519Z,3.13
2022-09-15T19:02:44.525Z,1.83
2022-09-15T19:05:11.580Z,3.13
2022-09-15T19:07:39.240Z,4.00
2022-09-15T19:10:11.064Z,5.30
2022-09-15T19:12:38.714Z,1.33
2022-09-15T19:15:10.737Z,3.27
2022-09-15T19:17:38.646Z,3.55
2022-09-15T19:20:07.070Z,2.90
2022-09-15T19:22:34.317Z,3.75
2022-09-15T19:25:01.517Z,3.10
2022-09-15T19:27:28.351Z,4.07
2022-09-15T19:29:54.964Z,5.13
2022-09-15T19:32:22.198Z,4.82
2022-09-15T19:34:49.238Z,6.72
2022-09-15T19:37:19.026Z,2.45
2022-09-15T19:39:46.526Z,5.07
2022-09-15T19:42:16.968Z,2.33
2022-09-15T19:44:43.743Z,3.60
2022-09-15T19:47:10.560Z,7.25
2022-09-15T19:49:37.355Z,7.93
2022-09-15T19:52:06.540Z,4.67
2022-09-15T19:54:34.520Z,4.00
2022-09-15T19:57:02.125Z,4.82
2022-09-15T19:59:31.277Z,9.20
2022-09-15T20:01:58.883Z,3.38
2022-09-15T20:04:25.482Z,6.47
2022-09-15T20:06:52.052Z,3.17
2022-09-15T20:09:18.861Z,2.67
2022-09-15T20:11:45.377Z,3.63
2022-09-15T20:14:12.015Z,2.55
2022-09-15T20:16:38.597Z,4.80
2022-09-15T20:19:06.181Z,5.22
2022-09-15T20:21:51.738Z,7.72
2022-09-15T20:24:19.949Z,4.03
2022-09-15T20:26:46.702Z,2.53
2022-09-15T20:29:13.882Z,2.83
2022-09-15T20:31:40.745Z,7.97
2022-09-15T20:34:07.445Z,4.28
2022-09-15T20:36:36.508Z,3.65
2022-09-15T20:39:06.178Z,12.25
2022-09-15T20:41:32.796Z,4.90
2022-09-15T20:44:00.223Z,5.05
2022-09-15T20:46:29.161Z,4.43
2022-09-15T20:48:55.738Z,2.15
2022-09-15T20:51:25.090Z,4.50
2022-09-15T20:53:53.949Z,2.47
2022-09-15T20:56:25.501Z,2.17
2022-09-15T20:58:58.446Z,4.45
2022-09-15T21:01:34.281Z,3.42
2022-09-15T21:04:01.170Z,4.45
2022-09-15T21:06:28.806Z,3.93
2022-09-15T21:08:56.760Z,3.20
2022-09-15T21:11:26.303Z,3.30
2022-09-15T21:13:52.967Z,2.38
2022-09-15T21:16:21.932Z,4.22
2022-09-15T21:18:49.540Z,5.20
2022-09-15T21:21:28.221Z,3.65
2022-09-15T21:23:56.498Z,3.88
2022-09-15T21:26:28.300Z,2.13
2022-09-15T21:28:56.029Z,3.45
2022-09-15T21:31:33.154Z,2.57
2022-09-15T21:33:59.843Z,9.80
2022-09-15T21:36:29.558Z,4.65
2022-09-15T21:38:58.164Z,3.95
2022-09-15T21:41:27.379Z,3.35
2022-09-15T21:43:58.268Z,7.40
2022-09-15T21:46:27.843Z,2.58
2022-09-15T21:48:56.080Z,2.85
2022-09-15T21:51:24.952Z,2.08
2022-09-15T21:53:54.048Z,2.63
2022-09-15T21:56:21.343Z,3.23
2022-09-15T21:58:48.073Z,4.40
2022-09-15T22:01:20.378Z,4.70
2022-09-15T22:03:51.557Z,2.83
2022-09-15T22:06:20.119Z,3.42
2022-09-15T22:08:47.075Z,4.43
2022-09-15T22:11:13.688Z,4.55
2022-09-15T22:13:43.526Z,4.18
2022-09-15T22:16:16.497Z,4.25
2022-09-15T22:18:44.280Z,3.35
2022-09-15T22:21:14.849Z,3.07
2022-09-15T22:23:42.558Z,2.35
2022-09-15T22:26:16.107Z,1.73
2022-09-15T22:28:43.169Z,2.70
2022-09-15T22:31:11.869Z,6.00
2022-09-15T22:33:40.951Z,3.37
2022-09-15T22:36:12.194Z,4.97
2022-09-15T22:38:38.860Z,6.20
2022-09-15T22:41:12.042Z,3.78
2022-09-15T22:43:40.007Z,3.13
2022-09-15T22:46:07.651Z,4.63
2022-09-15T22:48:37.479Z,6.55
2022-09-15T22:51:06.994Z,5.30
2022-09-15T22:53:54.631Z,2.35
2022-09-15T22:56:21.478Z,2.15
2022-09-15T22:58:49.485Z,4.73
2022-09-15T23:01:21.582Z,5.50
2022-09-15T23:03:53.080Z,4.30
2022-09-15T23:06:20.564Z,5.70
2022-09-15T23:08:54.705Z,2.05
2022-09-15T23:11:21.306Z,4.53
2022-09-15T23:13:47.892Z,4.45
2022-09-15T23:16:14.636Z,4.47
2022-09-15T23:18:41.180Z,2.92
2022-09-15T23:21:09.691Z,4.82
2022-09-15T23:23:39.033Z,9.47
2022-09-15T23:26:07.963Z,4.07
2022-09-15T23:28:34.596Z,5.40
2022-09-15T23:31:01.504Z,2.97
2022-09-15T23:33:31.383Z,3.25
2022-09-15T23:36:03.099Z,6.30
2022-09-15T23:38:30.465Z,4.00
2022-09-15T23:40:57.333Z,3.42
2022-09-15T23:43:23.816Z,2.95
2022-09-15T23:45:51.221Z,4.10
2022-09-15T23:48:17.792Z,2.93
2022-09-15T23:50:44.413Z,3.53
2022-09-15T23:53:10.875Z,4.18
2022-09-15T23:55:37.509Z,3.63
2022-09-15T23:58:05.386Z,4.78
